< < Back
Terminal Aerodrome Forecast


Current Version              Previous Versions:   1  2  3  4  5  6  7  8  9  

Terminal Aerodrome Forecast

342
FTUS44 KBMX 311801 CCA
TAFANB
TAF COR
KANB 311801Z 3118/0118 06004KT P6SM SCT025 BKN035
     FM311900 06004KT P6SM SCT040
     FM010200 00000KT P6SM SCT250=

Latest METAR

151
SAUS70 KWBC 311900 RRB
MTRANB
METAR KANB 311853Z AUTO 35004KT 10SM FEW039 OVC055 26/20 A3011 RMK AO2
SLP188 T02610200


USA.gov is the U.S. government's official web portal to all federal, state and local government web resources and services.